createdAt,value
2023-02-27T00:02:00.136Z,-0.07
2023-02-27T00:04:26.723Z,-0.07
2023-02-27T00:06:53.157Z,-0.08
2023-02-27T00:09:19.611Z,-0.09
2023-02-27T00:11:46.058Z,-0.11
2023-02-27T00:14:12.535Z,-0.12
2023-02-27T00:16:38.968Z,-0.14
2023-02-27T00:19:05.498Z,-0.14
2023-02-27T00:21:32.606Z,-0.16
2023-02-27T00:23:59.190Z,-0.16
2023-02-27T00:26:25.886Z,-0.16
2023-02-27T00:28:52.318Z,-0.15
2023-02-27T00:31:19.178Z,-0.15
2023-02-27T00:33:45.702Z,-0.16
2023-02-27T00:36:12.299Z,-0.19
2023-02-27T00:38:38.781Z,-0.20
2023-02-27T00:41:05.323Z,-0.22
2023-02-27T00:43:31.805Z,-0.24
2023-02-27T00:45:58.616Z,-0.27
2023-02-27T00:48:25.104Z,-0.29
2023-02-27T00:50:51.643Z,-0.30
2023-02-27T00:53:18.465Z,-0.32
2023-02-27T00:55:44.914Z,-0.35
2023-02-27T00:58:11.603Z,-0.39
2023-02-27T01:00:38.182Z,-0.42
2023-02-27T01:03:04.898Z,-0.45
2023-02-27T01:05:31.390Z,-0.47
2023-02-27T01:07:59.514Z,-0.50
2023-02-27T01:10:25.998Z,-0.51
2023-02-27T01:12:52.456Z,-0.52
2023-02-27T01:15:19.017Z,-0.54
2023-02-27T01:17:48.043Z,-0.56
2023-02-27T01:20:15.303Z,-0.60
2023-02-27T01:22:41.844Z,-0.62
2023-02-27T01:25:10.385Z,-0.63
2023-02-27T01:27:39.513Z,-0.69
2023-02-27T01:30:07.000Z,-0.74
2023-02-27T01:32:33.633Z,-0.77
2023-02-27T01:35:00.133Z,-0.81
2023-02-27T01:37:26.585Z,-0.91
2023-02-27T01:39:53.047Z,-0.97
2023-02-27T01:42:22.962Z,-0.99
2023-02-27T01:45:18.294Z,-1.03
2023-02-27T01:47:50.964Z,-1.06
2023-02-27T01:50:18.962Z,-1.12
2023-02-27T01:52:51.505Z,-1.17
2023-02-27T01:55:19.823Z,-1.19
2023-02-27T01:57:48.395Z,-1.22
2023-02-27T02:00:15.751Z,-1.25
2023-02-27T02:02:49.843Z,-1.31
2023-02-27T02:05:16.516Z,-1.30
2023-02-27T02:07:45.397Z,-1.35
2023-02-27T02:10:14.972Z,-1.39
2023-02-27T02:12:41.750Z,-1.47
2023-02-27T02:15:09.406Z,-1.50
2023-02-27T02:17:59.965Z,-1.48
2023-02-27T02:20:54.340Z,-1.50
2023-02-27T02:23:58.299Z,-1.54
2023-02-27T02:26:47.609Z,-1.57
2023-02-27T02:29:32.560Z,-1.63
2023-02-27T02:32:36.934Z,-1.76
2023-02-27T02:35:41.001Z,-1.73
2023-02-27T02:38:45.032Z,-1.80
2023-02-27T02:41:39.558Z,-1.82
2023-02-27T02:44:27.405Z,-1.79
2023-02-27T02:47:08.086Z,-1.81
2023-02-27T02:50:05.352Z,-1.78
2023-02-27T02:52:51.420Z,-1.74
2023-02-27T02:55:34.386Z,-1.72
2023-02-27T02:58:21.126Z,-1.71
2023-02-27T03:00:55.458Z,-1.71
2023-02-27T03:03:27.748Z,-1.72
2023-02-27T03:06:06.519Z,-1.73
2023-02-27T03:08:58.350Z,-1.75
2023-02-27T03:11:29.644Z,-1.77
2023-02-27T03:14:08.089Z,-1.77
2023-02-27T03:16:48.487Z,-1.79
2023-02-27T03:19:23.341Z,-1.82
2023-02-27T03:21:55.973Z,-1.84
2023-02-27T03:24:36.198Z,-1.87
2023-02-27T03:27:06.120Z,-1.92
2023-02-27T03:30:01.234Z,-2.00
2023-02-27T03:32:35.662Z,-2.02
2023-02-27T03:35:04.650Z,-2.08
2023-02-27T03:37:58.961Z,-2.06
2023-02-27T03:40:33.844Z,-2.06
2023-02-27T03:43:17.264Z,-2.10
2023-02-27T03:46:25.385Z,-2.13
2023-02-27T03:48:52.933Z,-2.11
2023-02-27T03:51:22.470Z,-2.10
2023-02-27T03:54:03.760Z,-2.12
2023-02-27T03:56:42.891Z,-2.13
2023-02-27T03:59:09.710Z,-2.18
2023-02-27T04:01:40.380Z,-2.22
2023-02-27T04:04:15.251Z,-2.25
2023-02-27T04:07:28.338Z,-2.29
2023-02-27T04:10:04.094Z,-2.29
2023-02-27T04:12:38.468Z,-2.31
2023-02-27T04:15:18.153Z,-2.29
2023-02-27T04:18:21.257Z,-2.26
2023-02-27T04:20:58.057Z,-2.24
2023-02-27T04:23:42.765Z,-2.24
2023-02-27T04:26:25.253Z,-2.25
2023-02-27T04:29:08.438Z,-2.25
2023-02-27T04:31:58.634Z,-2.27
2023-02-27T04:34:40.567Z,-2.27
2023-02-27T04:37:12.974Z,-2.28
2023-02-27T04:39:51.773Z,-2.30
2023-02-27T04:42:24.394Z,-2.31
2023-02-27T04:44:54.814Z,-2.32
2023-02-27T04:47:24.038Z,-2.34
2023-02-27T04:49:59.319Z,-2.36
2023-02-27T04:52:33.567Z,-2.43
2023-02-27T04:55:17.776Z,-2.55
2023-02-27T04:57:52.630Z,-2.53
2023-02-27T05:00:22.429Z,-2.52
2023-02-27T05:02:54.976Z,-2.49
2023-02-27T05:05:26.654Z,-2.48
2023-02-27T05:08:20.560Z,-2.46
2023-02-27T05:10:53.748Z,-2.45
2023-02-27T05:13:31.594Z,-2.47
2023-02-27T05:16:07.542Z,-2.47
2023-02-27T05:18:34.770Z,-2.50
2023-02-27T05:21:29.641Z,-2.50
2023-02-27T05:24:05.952Z,-2.49
2023-02-27T05:26:57.064Z,-2.49
2023-02-27T05:29:23.585Z,-2.48
2023-02-27T05:32:23.937Z,-2.46
2023-02-27T05:34:56.508Z,-2.48
2023-02-27T05:37:33.485Z,-2.49
2023-02-27T05:40:06.507Z,-2.51
2023-02-27T05:42:38.119Z,-2.51
2023-02-27T05:45:11.596Z,-2.53
2023-02-27T05:47:43.878Z,-2.54
2023-02-27T05:50:14.395Z,-2.53
2023-02-27T05:52:42.919Z,-2.52
2023-02-27T05:55:17.797Z,-2.52
2023-02-27T05:57:51.393Z,-2.51
2023-02-27T06:00:29.715Z,-2.52
2023-02-27T06:02:56.326Z,-2.51
2023-02-27T06:05:26.015Z,-2.50
2023-02-27T06:07:52.570Z,-2.50
2023-02-27T06:10:21.257Z,-2.49
2023-02-27T06:12:48.221Z,-2.49
2023-02-27T06:15:14.803Z,-2.47
2023-02-27T06:17:41.246Z,-2.47
2023-02-27T06:20:09.038Z,-2.49
2023-02-27T06:22:35.930Z,-2.47
2023-02-27T06:25:03.840Z,-2.46
2023-02-27T06:27:30.565Z,-2.45
2023-02-27T06:29:57.624Z,-2.45
2023-02-27T06:32:25.709Z,-2.43
2023-02-27T06:34:53.131Z,-2.41
2023-02-27T06:37:21.515Z,-2.40
2023-02-27T06:39:48.115Z,-2.39
2023-02-27T06:42:14.633Z,-2.37
2023-02-27T06:44:41.119Z,-2.35
2023-02-27T06:47:07.581Z,-2.32
2023-02-27T06:49:34.285Z,-2.30
2023-02-27T06:52:00.719Z,-2.28
2023-02-27T06:54:27.189Z,-2.26
2023-02-27T06:56:53.671Z,-2.23
2023-02-27T06:59:20.175Z,-2.21
2023-02-27T07:01:46.696Z,-2.18
2023-02-27T07:04:15.302Z,-2.15
2023-02-27T07:07:32.697Z,-2.12
2023-02-27T07:09:28.618Z,-2.07
2023-02-27T07:11:55.135Z,-2.03
2023-02-27T07:14:22.169Z,-1.99
2023-02-27T07:16:50.980Z,-1.94
2023-02-27T07:19:18.460Z,-1.91
2023-02-27T07:21:45.346Z,-1.88
2023-02-27T07:24:11.847Z,-1.84
2023-02-27T07:26:38.543Z,-1.80
2023-02-27T07:29:05.609Z,-1.72
2023-02-27T07:31:32.663Z,-1.64
2023-02-27T07:33:59.350Z,-1.55
2023-02-27T07:36:26.069Z,-1.47
2023-02-27T07:38:52.797Z,-1.37
2023-02-27T07:41:30.063Z,-1.27
2023-02-27T07:43:59.804Z,-1.18
2023-02-27T07:46:27.651Z,-1.08
2023-02-27T07:48:54.814Z,-1.00
2023-02-27T07:51:21.567Z,-0.90
2023-02-27T07:53:48.115Z,-0.79
2023-02-27T07:56:14.763Z,-0.69
2023-02-27T07:58:41.213Z,-0.58
2023-02-27T08:01:07.894Z,-0.47
2023-02-27T08:03:34.438Z,-0.37
2023-02-27T08:06:02.362Z,-0.26
2023-02-27T08:08:29.568Z,-0.14
2023-02-27T08:10:56.218Z,-0.04
2023-02-27T08:13:42.280Z,0.07
2023-02-27T08:16:09.359Z,0.21
2023-02-27T08:18:36.161Z,0.33
2023-02-27T08:21:04.937Z,0.45
2023-02-27T08:23:32.484Z,0.58
2023-02-27T08:25:59.035Z,0.69
2023-02-27T08:28:25.574Z,0.79
2023-02-27T08:30:52.059Z,0.91
2023-02-27T08:33:18.556Z,1.03
2023-02-27T08:35:45.416Z,1.15
2023-02-27T08:38:11.971Z,1.24
2023-02-27T08:40:38.497Z,1.32
2023-02-27T08:43:04.997Z,1.38
2023-02-27T08:45:31.705Z,1.46
2023-02-27T08:47:58.291Z,1.53
2023-02-27T08:50:24.736Z,1.60
2023-02-27T08:52:51.221Z,1.69
2023-02-27T08:55:17.772Z,1.74
2023-02-27T08:57:44.304Z,1.81
2023-02-27T09:00:14.499Z,1.85
2023-02-27T09:02:41.543Z,1.91
2023-02-27T09:05:08.570Z,1.95
2023-02-27T09:07:35.086Z,2.02
2023-02-27T09:10:01.591Z,2.05
2023-02-27T09:12:28.098Z,2.17
2023-02-27T09:14:54.791Z,2.25
2023-02-27T09:17:21.688Z,2.33
2023-02-27T09:19:48.205Z,2.41
2023-02-27T09:22:14.706Z,2.42
2023-02-27T09:24:41.167Z,2.45
2023-02-27T09:27:07.685Z,2.54
2023-02-27T09:29:34.332Z,2.60
2023-02-27T09:32:01.165Z,2.70
2023-02-27T09:34:27.743Z,2.80
2023-02-27T09:36:54.227Z,2.86
2023-02-27T09:39:20.702Z,2.90
2023-02-27T09:42:06.624Z,2.95
2023-02-27T09:44:46.607Z,3.02
2023-02-27T09:47:35.576Z,3.15
2023-02-27T09:50:10.926Z,3.22
2023-02-27T09:52:37.685Z,3.29
2023-02-27T09:55:19.618Z,3.38
2023-02-27T09:57:51.705Z,3.45
2023-02-27T10:00:38.252Z,3.57
2023-02-27T10:03:43.617Z,3.63
2023-02-27T10:06:27.050Z,3.66
2023-02-27T10:09:06.228Z,3.73
2023-02-27T10:11:49.155Z,3.84
2023-02-27T10:14:39.431Z,3.94
2023-02-27T10:17:13.448Z,4.06
2023-02-27T10:19:41.318Z,4.21
2023-02-27T10:22:14.195Z,4.36
2023-02-27T10:24:47.349Z,4.40
2023-02-27T10:27:17.649Z,4.23
2023-02-27T10:29:44.213Z,4.17
2023-02-27T10:32:23.525Z,4.27
2023-02-27T10:35:16.616Z,4.31
2023-02-27T10:37:49.502Z,4.25
2023-02-27T10:40:17.668Z,4.41
2023-02-27T10:42:44.877Z,4.43
2023-02-27T10:45:15.729Z,4.38
2023-02-27T10:47:42.565Z,4.41
2023-02-27T10:50:23.150Z,4.54
2023-02-27T10:52:56.479Z,4.57
2023-02-27T10:55:29.510Z,4.78
2023-02-27T10:58:01.406Z,5.03
2023-02-27T11:00:54.121Z,5.21
2023-02-27T11:03:26.487Z,5.34
2023-02-27T11:05:56.188Z,5.33
2023-02-27T11:08:24.395Z,5.35
2023-02-27T11:10:58.936Z,5.58
2023-02-27T11:13:28.490Z,5.56
2023-02-27T11:16:04.006Z,5.41
2023-02-27T11:18:31.349Z,5.31
2023-02-27T11:21:22.727Z,5.37
2023-02-27T11:24:03.864Z,5.25
2023-02-27T11:26:33.133Z,5.17
2023-02-27T11:29:07.440Z,5.21
2023-02-27T11:31:36.747Z,5.34
2023-02-27T11:34:04.925Z,5.42
2023-02-27T11:36:46.838Z,5.42
2023-02-27T11:39:30.385Z,5.47
2023-02-27T11:41:59.294Z,5.51
2023-02-27T11:44:50.586Z,5.53
2023-02-27T11:47:30.293Z,5.52
2023-02-27T11:50:32.532Z,5.45
2023-02-27T11:53:04.905Z,5.51
2023-02-27T11:55:32.248Z,5.57
2023-02-27T11:58:13.741Z,5.53
2023-02-27T12:00:45.489Z,5.55
2023-02-27T12:03:20.687Z,5.47
2023-02-27T12:05:51.028Z,5.32
2023-02-27T12:08:48.598Z,5.29
2023-02-27T12:11:20.587Z,5.38
2023-02-27T12:13:52.865Z,5.46
2023-02-27T12:16:27.386Z,5.48
2023-02-27T12:19:00.301Z,5.43
2023-02-27T12:21:31.920Z,5.38
2023-02-27T12:24:10.459Z,5.43
2023-02-27T12:26:40.731Z,5.56
2023-02-27T12:29:26.224Z,5.75
2023-02-27T12:31:59.782Z,5.91
2023-02-27T12:34:29.403Z,6.02
2023-02-27T12:37:25.246Z,6.11
2023-02-27T12:39:54.419Z,6.27
2023-02-27T12:42:36.641Z,6.38
2023-02-27T12:45:31.270Z,6.43
2023-02-27T12:48:16.497Z,6.32
2023-02-27T12:50:54.683Z,6.28
2023-02-27T12:53:31.007Z,6.18
2023-02-27T12:56:21.753Z,6.14
2023-02-27T12:58:58.798Z,6.10
2023-02-27T13:01:48.110Z,6.10
2023-02-27T13:04:26.033Z,6.12
2023-02-27T13:07:08.549Z,6.09
2023-02-27T13:09:51.990Z,6.16
2023-02-27T13:13:12.893Z,6.38
2023-02-27T13:15:54.445Z,6.53
2023-02-27T13:18:39.469Z,6.61
2023-02-27T13:21:12.313Z,6.61
2023-02-27T13:24:13.291Z,6.63
2023-02-27T13:26:48.022Z,6.58
2023-02-27T13:29:16.456Z,6.48
2023-02-27T13:32:04.125Z,6.50
2023-02-27T13:34:37.100Z,6.45
2023-02-27T13:37:06.101Z,6.40
2023-02-27T13:39:46.873Z,6.40
2023-02-27T13:42:25.447Z,6.32
2023-02-27T13:44:54.188Z,6.21
2023-02-27T13:47:29.345Z,6.18
2023-02-27T13:50:01.966Z,6.28
2023-02-27T13:52:37.655Z,6.34
2023-02-27T13:55:12.061Z,6.42
2023-02-27T13:57:39.012Z,6.58
2023-02-27T14:00:08.990Z,6.69
2023-02-27T14:02:59.737Z,6.72
2023-02-27T14:05:35.096Z,6.61
2023-02-27T14:08:16.776Z,6.42
2023-02-27T14:11:16.284Z,6.27
2023-02-27T14:13:49.199Z,6.21
2023-02-27T14:16:37.653Z,6.32
2023-02-27T14:19:16.399Z,6.37
2023-02-27T14:21:57.913Z,6.39
2023-02-27T14:24:44.782Z,6.44
2023-02-27T14:27:22.498Z,6.45
2023-02-27T14:29:52.037Z,6.52
2023-02-27T14:32:26.190Z,6.48
2023-02-27T14:34:54.784Z,6.56
2023-02-27T14:37:25.806Z,6.58
2023-02-27T14:39:54.562Z,6.51
2023-02-27T14:42:46.259Z,6.49
2023-02-27T14:45:18.365Z,6.42
2023-02-27T14:47:46.627Z,6.37
2023-02-27T14:50:34.045Z,6.25
2023-02-27T14:53:01.649Z,6.06
2023-02-27T14:55:37.186Z,5.93
2023-02-27T14:58:21.440Z,5.87
2023-02-27T15:00:58.099Z,5.87
2023-02-27T15:03:30.035Z,5.92
2023-02-27T15:05:59.259Z,5.96
2023-02-27T15:08:29.717Z,6.01
2023-02-27T15:10:58.448Z,6.11
2023-02-27T15:13:29.391Z,6.20
2023-02-27T15:16:21.090Z,6.27
2023-02-27T15:18:52.197Z,6.31
2023-02-27T15:21:20.895Z,6.27
2023-02-27T15:24:02.025Z,6.22
2023-02-27T15:26:30.894Z,6.19
2023-02-27T15:28:59.822Z,6.17
2023-02-27T15:31:31.005Z,6.09
2023-02-27T15:33:59.732Z,6.00
2023-02-27T15:36:30.723Z,5.93
2023-02-27T15:39:15.357Z,5.87
2023-02-27T15:41:49.127Z,5.83
2023-02-27T15:44:18.588Z,5.79
2023-02-27T15:46:46.819Z,5.73
2023-02-27T15:49:22.811Z,5.70
2023-02-27T15:51:59.165Z,5.70
2023-02-27T15:54:26.266Z,5.66
2023-02-27T15:56:53.693Z,5.60
2023-02-27T15:59:20.383Z,5.56
2023-02-27T16:01:49.501Z,5.57
2023-02-27T16:04:24.023Z,5.59
2023-02-27T16:07:01.712Z,5.60
2023-02-27T16:09:34.071Z,5.62
2023-02-27T16:12:25.355Z,5.62
2023-02-27T16:14:53.480Z,5.63
2023-02-27T16:17:26.984Z,5.64
2023-02-27T16:19:54.937Z,5.61
2023-02-27T16:22:22.592Z,5.56
2023-02-27T16:24:49.788Z,5.56
2023-02-27T16:27:29.904Z,5.60
2023-02-27T16:30:02.485Z,5.54
2023-02-27T16:32:39.741Z,5.51
2023-02-27T16:35:15.074Z,5.50
2023-02-27T16:37:43.385Z,5.50
2023-02-27T16:40:16.710Z,5.44
2023-02-27T16:42:44.127Z,5.40
2023-02-27T16:45:16.784Z,5.36
2023-02-27T16:47:43.711Z,5.32
2023-02-27T16:50:19.130Z,5.29
2023-02-27T16:52:45.912Z,5.25
2023-02-27T16:55:12.582Z,5.19
2023-02-27T16:57:39.145Z,5.14
2023-02-27T17:00:09.653Z,5.08
2023-02-27T17:02:36.196Z,5.03
2023-02-27T17:05:02.914Z,4.99
2023-02-27T17:07:30.406Z,4.94
2023-02-27T17:09:57.088Z,4.89
2023-02-27T17:12:23.543Z,4.84
2023-02-27T17:14:50.015Z,4.81
2023-02-27T17:17:16.527Z,4.77
2023-02-27T17:19:43.255Z,4.72
2023-02-27T17:22:09.699Z,4.66
2023-02-27T17:24:37.334Z,4.63
2023-02-27T17:27:03.932Z,4.58
2023-02-27T17:29:30.667Z,4.57
2023-02-27T17:31:57.595Z,4.54
2023-02-27T17:34:24.855Z,4.50
2023-02-27T17:36:51.488Z,4.43
2023-02-27T17:39:18.060Z,4.37
2023-02-27T17:41:45.120Z,4.31
2023-02-27T17:44:12.364Z,4.29
2023-02-27T17:46:40.315Z,4.24
2023-02-27T17:49:07.242Z,4.21
2023-02-27T17:51:33.984Z,4.15
2023-02-27T17:54:02.101Z,4.11
2023-02-27T17:56:29.054Z,4.07
2023-02-27T17:58:55.731Z,4.00
2023-02-27T18:01:25.755Z,3.95
2023-02-27T18:03:54.798Z,3.89
2023-02-27T18:06:22.685Z,3.82
2023-02-27T18:08:49.622Z,3.76
2023-02-27T18:11:18.871Z,3.68
2023-02-27T18:13:46.522Z,3.63
2023-02-27T18:16:13.342Z,3.58
2023-02-27T18:18:41.418Z,3.52
2023-02-27T18:21:14.361Z,3.53
2023-02-27T18:23:42.137Z,3.50
2023-02-27T18:26:27.165Z,3.43
2023-02-27T18:28:56.603Z,3.37
2023-02-27T18:31:29.865Z,3.31
2023-02-27T18:33:56.520Z,3.23
2023-02-27T18:36:23.118Z,3.17
2023-02-27T18:38:49.552Z,3.11
2023-02-27T18:41:16.007Z,3.08
2023-02-27T18:43:43.645Z,3.08
2023-02-27T18:46:12.664Z,3.06
2023-02-27T18:48:40.548Z,3.02
2023-02-27T18:51:12.213Z,2.98
2023-02-27T18:53:40.811Z,2.96
2023-02-27T18:56:09.047Z,2.91
2023-02-27T18:58:36.396Z,2.92
2023-02-27T19:01:07.359Z,2.90
2023-02-27T19:03:35.946Z,2.87
2023-02-27T19:06:02.670Z,2.84
2023-02-27T19:08:29.271Z,2.79
2023-02-27T19:10:57.188Z,2.75
2023-02-27T19:13:25.284Z,2.74
2023-02-27T19:15:52.523Z,2.75
2023-02-27T19:18:19.349Z,2.76
2023-02-27T19:20:46.035Z,2.76
2023-02-27T19:23:12.544Z,2.78
2023-02-27T19:25:39.221Z,2.80
2023-02-27T19:28:06.341Z,2.78
2023-02-27T19:30:32.812Z,2.79
2023-02-27T19:32:59.325Z,2.78
2023-02-27T19:35:25.801Z,2.78
2023-02-27T19:37:56.888Z,2.77
2023-02-27T19:40:24.525Z,2.78
2023-02-27T19:42:51.519Z,2.76
2023-02-27T19:45:18.531Z,2.76
2023-02-27T19:47:46.497Z,2.73
2023-02-27T19:50:13.065Z,2.72
2023-02-27T19:52:39.531Z,2.68
2023-02-27T19:55:06.523Z,2.64
2023-02-27T19:57:34.954Z,2.63
2023-02-27T20:00:01.494Z,2.60
2023-02-27T20:02:28.120Z,2.58
2023-02-27T20:04:54.673Z,2.56
2023-02-27T20:07:21.174Z,2.52
2023-02-27T20:09:47.673Z,2.49
2023-02-27T20:12:14.481Z,2.45
2023-02-27T20:14:41.603Z,2.42
2023-02-27T20:17:08.349Z,2.40
2023-02-27T20:19:36.351Z,2.39
2023-02-27T20:22:03.459Z,2.37
2023-02-27T20:24:29.975Z,2.38
2023-02-27T20:26:59.147Z,2.37
2023-02-27T20:29:27.587Z,2.36
2023-02-27T20:31:55.429Z,2.34
2023-02-27T20:34:26.116Z,2.30
2023-02-27T20:36:54.586Z,2.26
2023-02-27T20:39:22.842Z,2.22
2023-02-27T20:41:49.508Z,2.20
2023-02-27T20:44:16.365Z,2.17
2023-02-27T20:46:44.176Z,2.12
2023-02-27T20:49:14.929Z,2.09
2023-02-27T20:51:42.203Z,2.06
2023-02-27T20:54:13.708Z,2.03
2023-02-27T20:56:41.324Z,1.99
2023-02-27T20:59:11.826Z,1.95
2023-02-27T21:01:38.877Z,1.92
2023-02-27T21:04:06.050Z,1.88
2023-02-27T21:06:32.808Z,1.85
2023-02-27T21:09:03.821Z,1.82
2023-02-27T21:11:32.153Z,1.80
2023-02-27T21:14:03.242Z,1.75
2023-02-27T21:16:29.985Z,1.72
2023-02-27T21:18:56.880Z,1.70
2023-02-27T21:21:27.689Z,1.66
2023-02-27T21:23:54.752Z,1.64
2023-02-27T21:26:24.985Z,1.62
2023-02-27T21:29:00.489Z,1.59
2023-02-27T21:31:30.941Z,1.56
2023-02-27T21:34:00.112Z,1.52
2023-02-27T21:36:29.261Z,1.49
2023-02-27T21:38:58.523Z,1.47
2023-02-27T21:41:25.144Z,1.43
2023-02-27T21:43:51.620Z,1.39
2023-02-27T21:46:20.683Z,1.37
2023-02-27T21:48:47.314Z,1.33
2023-02-27T21:51:13.982Z,1.30
2023-02-27T21:53:40.514Z,1.26
2023-02-27T21:56:10.609Z,1.23
2023-02-27T21:58:38.039Z,1.21
2023-02-27T22:01:15.417Z,1.17
2023-02-27T22:03:46.682Z,1.14
2023-02-27T22:06:14.919Z,1.11
2023-02-27T22:08:41.593Z,1.09
2023-02-27T22:11:08.540Z,1.06
2023-02-27T22:13:35.900Z,1.05
2023-02-27T22:16:11.688Z,1.07
2023-02-27T22:18:39.467Z,1.10
2023-02-27T22:21:12.559Z,1.13
2023-02-27T22:23:39.819Z,1.13
2023-02-27T22:26:12.598Z,1.16
2023-02-27T22:28:41.228Z,1.20
2023-02-27T22:31:30.232Z,1.15
2023-02-27T22:34:01.016Z,1.10
2023-02-27T22:36:29.464Z,1.05
2023-02-27T22:38:56.763Z,0.99
2023-02-27T22:41:27.799Z,0.91
2023-02-27T22:43:55.421Z,0.89
2023-02-27T22:46:33.016Z,0.85
2023-02-27T22:49:05.307Z,0.83
2023-02-27T22:51:32.222Z,0.80
2023-02-27T22:54:01.694Z,0.77
2023-02-27T22:56:28.580Z,0.75
2023-02-27T22:58:55.119Z,0.73
2023-02-27T23:01:24.471Z,0.71
2023-02-27T23:03:53.239Z,0.66
2023-02-27T23:06:22.631Z,0.64
2023-02-27T23:08:49.758Z,0.60
2023-02-27T23:11:18.335Z,0.57
2023-02-27T23:13:44.937Z,0.56
2023-02-27T23:16:13.452Z,0.53
2023-02-27T23:18:43.138Z,0.49
2023-02-27T23:21:10.233Z,0.49
2023-02-27T23:23:36.909Z,0.49
2023-02-27T23:26:05.724Z,0.48
2023-02-27T23:28:34.353Z,0.48
2023-02-27T23:31:01.791Z,0.45
2023-02-27T23:33:29.359Z,0.45
2023-02-27T23:35:57.591Z,0.45
2023-02-27T23:38:25.180Z,0.45
2023-02-27T23:40:51.961Z,0.44
2023-02-27T23:43:18.566Z,0.44
2023-02-27T23:45:45.048Z,0.43
2023-02-27T23:48:11.690Z,0.45
2023-02-27T23:50:40.727Z,0.48
2023-02-27T23:53:07.604Z,0.51
2023-02-27T23:55:36.208Z,0.52
2023-02-27T23:58:05.594Z,0.53
